createdAt,value
2022-07-31T00:01:20.171Z,26.30
2022-07-31T00:03:48.129Z,26.18
2022-07-31T00:06:16.142Z,26.06
2022-07-31T00:08:44.119Z,25.93
2022-07-31T00:11:12.628Z,26.27
2022-07-31T00:13:57.437Z,25.96
2022-07-31T00:16:27.966Z,26.08
2022-07-31T00:18:56.372Z,26.27
2022-07-31T00:21:24.596Z,26.27
2022-07-31T00:23:52.659Z,26.28
2022-07-31T00:26:20.590Z,26.28
2022-07-31T00:28:48.796Z,26.18
2022-07-31T00:31:18.374Z,26.25
2022-07-31T00:33:47.628Z,26.16
2022-07-31T00:36:15.525Z,26.21
2022-07-31T00:38:43.432Z,26.19
2022-07-31T00:41:11.382Z,26.17
2022-07-31T00:43:39.211Z,26.07
2022-07-31T00:46:07.120Z,26.14
2022-07-31T00:48:42.689Z,26.12
2022-07-31T00:51:12.593Z,24.79
2022-07-31T00:54:22.679Z,26.12
2022-07-31T00:56:51.696Z,25.09
2022-07-31T00:59:24.458Z,26.00
2022-07-31T01:02:13.911Z,24.75
2022-07-31T01:04:44.472Z,25.93
2022-07-31T01:07:15.263Z,25.90
2022-07-31T01:09:43.526Z,25.87
2022-07-31T01:12:19.304Z,25.40
2022-07-31T01:14:55.737Z,25.42
2022-07-31T01:17:24.260Z,24.65
2022-07-31T01:19:52.846Z,23.82
2022-07-31T01:22:32.938Z,24.75
2022-07-31T01:25:07.989Z,25.59
2022-07-31T01:27:49.443Z,24.36
2022-07-31T01:31:17.267Z,25.51
2022-07-31T01:33:50.067Z,24.13
2022-07-31T01:36:20.947Z,25.35
2022-07-31T01:38:59.798Z,24.72
2022-07-31T01:41:29.604Z,23.88
2022-07-31T01:43:58.178Z,25.24
2022-07-31T01:46:28.109Z,24.65
2022-07-31T01:48:56.149Z,24.30
2022-07-31T01:51:24.623Z,25.12
2022-07-31T01:53:52.575Z,24.62
2022-07-31T01:56:20.508Z,25.05
2022-07-31T01:58:48.659Z,24.65
2022-07-31T02:01:16.687Z,24.66
2022-07-31T02:03:45.993Z,25.01
2022-07-31T02:06:19.530Z,24.91
2022-07-31T02:08:48.199Z,23.39
2022-07-31T02:11:16.192Z,24.99
2022-07-31T02:13:44.161Z,24.64
2022-07-31T02:16:12.232Z,24.36
2022-07-31T02:18:40.101Z,24.88
2022-07-31T02:21:09.503Z,23.93
2022-07-31T02:23:38.557Z,24.30
2022-07-31T02:26:07.303Z,24.82
2022-07-31T02:28:35.821Z,23.05
2022-07-31T02:31:03.713Z,23.70
2022-07-31T02:33:31.567Z,24.79
2022-07-31T02:35:59.473Z,23.96
2022-07-31T02:38:28.832Z,24.27
2022-07-31T02:40:58.792Z,24.33
2022-07-31T02:43:26.938Z,23.17
2022-07-31T02:45:55.069Z,23.59
2022-07-31T02:48:22.952Z,23.82
2022-07-31T02:50:50.889Z,24.34
2022-07-31T02:53:18.719Z,21.92
2022-07-31T02:55:48.088Z,23.97
2022-07-31T02:58:16.022Z,23.41
2022-07-31T03:00:44.006Z,23.95
2022-07-31T03:03:12.005Z,23.84
2022-07-31T03:05:39.890Z,22.40
2022-07-31T03:08:07.856Z,24.12
2022-07-31T03:10:35.843Z,22.76
2022-07-31T03:13:05.101Z,22.43
2022-07-31T03:15:32.964Z,24.63
2022-07-31T03:18:00.884Z,23.20
2022-07-31T03:20:28.871Z,24.15
2022-07-31T03:22:56.812Z,23.82
2022-07-31T03:25:24.686Z,22.88
2022-07-31T03:27:56.194Z,24.67
2022-07-31T03:30:26.436Z,23.99
2022-07-31T03:32:54.462Z,24.58
2022-07-31T03:35:22.370Z,22.93
2022-07-31T03:37:50.340Z,24.17
2022-07-31T03:40:18.289Z,24.32
2022-07-31T03:42:46.149Z,24.89
2022-07-31T03:45:14.222Z,23.99
2022-07-31T03:47:44.102Z,24.96
2022-07-31T03:50:12.512Z,24.02
2022-07-31T03:52:40.841Z,25.05
2022-07-31T03:55:09.979Z,23.77
2022-07-31T03:57:38.323Z,24.37
2022-07-31T04:00:13.200Z,24.33
2022-07-31T04:02:47.246Z,22.42
2022-07-31T04:05:15.448Z,24.41
2022-07-31T04:07:43.850Z,25.21
2022-07-31T04:10:12.575Z,24.58
2022-07-31T04:12:40.855Z,25.22
2022-07-31T04:15:09.966Z,24.40
2022-07-31T04:17:38.204Z,24.42
2022-07-31T04:20:09.622Z,24.94
2022-07-31T04:22:37.849Z,25.33
2022-07-31T04:25:08.613Z,24.25
2022-07-31T04:27:48.652Z,23.59
2022-07-31T04:30:17.372Z,24.04
2022-07-31T04:32:46.399Z,24.90
2022-07-31T04:35:16.404Z,23.70
2022-07-31T04:37:48.099Z,23.61
2022-07-31T04:40:17.187Z,25.13
2022-07-31T04:42:45.133Z,24.60
2022-07-31T04:45:13.342Z,24.39
2022-07-31T04:47:41.254Z,24.80
2022-07-31T04:50:10.402Z,25.24
2022-07-31T04:52:39.692Z,25.43
2022-07-31T04:55:08.205Z,24.88
2022-07-31T04:57:36.170Z,25.43
2022-07-31T05:00:04.751Z,25.15
2022-07-31T05:02:32.678Z,25.46
2022-07-31T05:05:00.691Z,25.51
2022-07-31T05:07:28.998Z,24.76
2022-07-31T05:09:58.740Z,25.23
2022-07-31T05:12:26.861Z,22.65
2022-07-31T05:14:54.737Z,24.24
2022-07-31T05:17:23.667Z,25.31
2022-07-31T05:19:56.841Z,24.98
2022-07-31T05:22:24.690Z,24.32
2022-07-31T05:24:54.794Z,25.72
2022-07-31T05:27:24.087Z,24.94
2022-07-31T05:29:52.154Z,24.15
2022-07-31T05:32:20.023Z,25.77
2022-07-31T05:34:48.025Z,25.78
2022-07-31T05:37:15.942Z,25.82
2022-07-31T05:39:43.868Z,25.83
2022-07-31T05:42:12.194Z,25.89
2022-07-31T05:44:41.457Z,25.04
2022-07-31T05:47:09.512Z,25.65
2022-07-31T05:49:37.535Z,24.52
2022-07-31T05:52:06.215Z,25.54
2022-07-31T05:54:34.458Z,25.17
2022-07-31T05:57:02.417Z,25.18
2022-07-31T05:59:30.315Z,25.35
2022-07-31T06:02:00.290Z,24.65
2022-07-31T06:04:29.098Z,25.35
2022-07-31T06:06:57.326Z,25.54
2022-07-31T06:09:25.793Z,24.97
2022-07-31T06:11:53.977Z,26.27
2022-07-31T06:14:22.026Z,26.72
2022-07-31T06:16:50.296Z,25.37
2022-07-31T06:19:24.558Z,26.94
2022-07-31T06:22:01.879Z,25.91
2022-07-31T06:24:29.851Z,25.73
2022-07-31T06:26:58.199Z,26.35
2022-07-31T06:29:41.139Z,27.51
2022-07-31T06:32:10.250Z,26.62
2022-07-31T06:34:46.540Z,27.20
2022-07-31T06:37:30.987Z,27.59
2022-07-31T06:43:42.852Z,27.92
2022-07-31T06:46:14.571Z,28.80
2022-07-31T06:48:42.484Z,29.35
2022-07-31T06:51:30.303Z,28.16
2022-07-31T06:53:59.067Z,29.07
2022-07-31T06:56:26.965Z,29.56
2022-07-31T06:58:55.270Z,30.55
2022-07-31T07:01:23.481Z,29.80
2022-07-31T07:03:51.606Z,29.48
2022-07-31T07:06:20.895Z,29.59
2022-07-31T07:08:48.893Z,29.46
2022-07-31T07:11:17.320Z,29.91
2022-07-31T07:13:46.827Z,29.17
2022-07-31T07:16:16.253Z,29.42
2022-07-31T07:18:44.381Z,27.36
2022-07-31T07:21:12.406Z,27.73
2022-07-31T07:23:41.770Z,29.37
2022-07-31T07:26:09.640Z,29.35
2022-07-31T07:28:37.514Z,28.01
2022-07-31T07:31:06.924Z,28.13
2022-07-31T07:33:40.789Z,28.67
2022-07-31T07:36:23.002Z,28.17
2022-07-31T07:38:54.910Z,28.35
2022-07-31T07:41:23.993Z,29.02
2022-07-31T07:43:52.308Z,28.74
2022-07-31T07:46:21.203Z,28.60
2022-07-31T07:48:50.890Z,27.64
2022-07-31T07:51:21.195Z,28.80
2022-07-31T07:53:49.202Z,28.35
2022-07-31T07:56:18.693Z,27.42
2022-07-31T07:58:46.621Z,26.84
2022-07-31T08:01:14.882Z,28.24
2022-07-31T08:03:50.686Z,28.32
2022-07-31T08:06:21.163Z,26.53
2022-07-31T08:08:49.119Z,27.31
2022-07-31T08:11:18.565Z,28.42
2022-07-31T08:13:50.670Z,26.97
2022-07-31T08:16:20.223Z,27.21
2022-07-31T08:18:48.295Z,27.44
2022-07-31T08:21:16.324Z,28.46
2022-07-31T08:23:44.683Z,27.29
2022-07-31T08:26:14.049Z,27.43
2022-07-31T08:28:50.790Z,28.63
2022-07-31T08:31:20.020Z,28.78
2022-07-31T08:33:48.610Z,27.72
2022-07-31T08:36:16.490Z,28.24
2022-07-31T08:38:44.396Z,27.76
2022-07-31T08:41:14.781Z,27.95
2022-07-31T08:44:00.381Z,27.75
2022-07-31T08:46:32.524Z,29.61
2022-07-31T08:49:00.455Z,29.45
2022-07-31T08:51:28.385Z,29.05
2022-07-31T08:53:56.307Z,28.71
2022-07-31T08:56:24.383Z,28.81
2022-07-31T08:58:53.999Z,29.97
2022-07-31T09:01:21.940Z,28.46
2022-07-31T09:03:49.829Z,29.24
2022-07-31T09:06:17.685Z,29.46
2022-07-31T09:08:45.656Z,28.92
2022-07-31T09:11:15.522Z,29.82
2022-07-31T09:14:01.811Z,29.02
2022-07-31T09:16:31.363Z,28.96
2022-07-31T09:19:00.175Z,29.85
2022-07-31T09:21:28.137Z,29.42
2022-07-31T09:23:56.297Z,29.36
2022-07-31T09:26:33.928Z,29.44
2022-07-31T09:29:04.608Z,29.38
2022-07-31T09:31:33.554Z,29.42
2022-07-31T09:34:01.793Z,30.27
2022-07-31T09:36:29.729Z,29.63
2022-07-31T09:47:26.994Z,31.32
2022-07-31T09:49:58.239Z,31.36
2022-07-31T09:52:26.516Z,32.07
2022-07-31T09:55:15.905Z,32.73
2022-07-31T09:57:52.515Z,31.27
2022-07-31T10:00:20.441Z,32.89
2022-07-31T10:02:49.680Z,32.60
2022-07-31T10:05:17.633Z,32.38
2022-07-31T10:07:45.642Z,32.52
2022-07-31T10:10:20.002Z,33.32
2022-07-31T10:12:55.529Z,33.27
2022-07-31T10:15:24.153Z,33.00
2022-07-31T10:17:55.126Z,33.28
2022-07-31T10:20:26.302Z,33.17
2022-07-31T10:22:55.530Z,32.70
2022-07-31T10:25:26.284Z,32.54
2022-07-31T10:27:54.562Z,32.36
2022-07-31T10:30:27.376Z,33.13
2022-07-31T10:32:58.655Z,32.50
2022-07-31T10:35:26.921Z,32.95
2022-07-31T10:37:57.844Z,31.84
2022-07-31T10:40:28.758Z,32.10
2022-07-31T10:43:03.077Z,32.58
2022-07-31T10:45:32.117Z,31.65
2022-07-31T10:48:03.505Z,31.12
2022-07-31T10:50:32.115Z,31.97
2022-07-31T10:53:09.023Z,30.44
2022-07-31T10:55:37.478Z,32.57
2022-07-31T10:58:09.832Z,32.18
2022-07-31T11:00:37.974Z,33.62
2022-07-31T11:03:24.557Z,34.23
2022-07-31T11:06:01.930Z,34.66
2022-07-31T11:08:41.247Z,34.79
2022-07-31T11:11:09.195Z,35.14
2022-07-31T11:13:46.191Z,35.39
2022-07-31T11:16:14.116Z,35.10
2022-07-31T11:18:46.040Z,35.80
2022-07-31T11:21:37.130Z,34.74
2022-07-31T11:24:03.184Z,35.73
2022-07-31T11:26:41.512Z,34.94
2022-07-31T11:30:00.007Z,35.47
2022-07-31T11:32:14.466Z,35.64
2022-07-31T11:34:51.935Z,33.50
2022-07-31T11:37:22.938Z,34.87
2022-07-31T11:39:52.572Z,34.37
2022-07-31T11:42:21.234Z,35.01
2022-07-31T11:45:15.032Z,34.79
2022-07-31T11:48:12.159Z,34.62
2022-07-31T11:50:32.372Z,34.43
2022-07-31T11:53:04.700Z,34.39
2022-07-31T11:55:33.031Z,34.41
2022-07-31T11:58:01.035Z,34.74
2022-07-31T12:00:30.510Z,34.84
2022-07-31T12:02:58.716Z,34.76
2022-07-31T12:05:35.275Z,34.53
2022-07-31T12:08:07.538Z,34.35
2022-07-31T12:10:35.493Z,34.06
2022-07-31T12:13:03.548Z,33.73
2022-07-31T12:15:32.868Z,33.32
2022-07-31T12:18:01.765Z,33.05
2022-07-31T12:20:35.789Z,33.04
2022-07-31T12:23:05.728Z,33.18
2022-07-31T12:25:43.378Z,33.43
2022-07-31T12:28:11.458Z,33.64
2022-07-31T12:30:40.725Z,33.87
2022-07-31T12:33:09.171Z,34.07
2022-07-31T12:35:55.886Z,33.90
2022-07-31T12:38:48.036Z,34.46
2022-07-31T12:41:13.988Z,34.65
2022-07-31T12:43:52.500Z,34.82
2022-07-31T12:46:36.246Z,35.04
2022-07-31T12:49:04.341Z,35.10
2022-07-31T12:51:45.284Z,33.85
2022-07-31T12:54:17.819Z,35.23
2022-07-31T12:56:47.501Z,35.23
2022-07-31T12:59:42.949Z,34.88
2022-07-31T13:02:14.728Z,34.45
2022-07-31T13:04:42.844Z,34.19
2022-07-31T13:07:12.955Z,32.18
2022-07-31T13:09:40.967Z,35.03
2022-07-31T13:12:12.787Z,34.81
2022-07-31T13:14:40.740Z,34.87
2022-07-31T13:17:08.769Z,34.92
2022-07-31T13:19:38.513Z,34.89
2022-07-31T13:22:09.394Z,33.39
2022-07-31T13:24:37.256Z,34.54
2022-07-31T13:27:06.007Z,34.66
2022-07-31T13:29:34.589Z,34.34
2022-07-31T13:32:02.674Z,34.40
2022-07-31T13:34:30.558Z,34.14
2022-07-31T13:37:00.086Z,34.18
2022-07-31T13:39:48.795Z,34.02
2022-07-31T13:42:16.674Z,33.79
2022-07-31T13:44:47.613Z,33.36
2022-07-31T13:47:15.575Z,33.28
2022-07-31T13:49:43.615Z,33.22
2022-07-31T13:52:24.607Z,33.09
2022-07-31T13:54:52.610Z,32.93
2022-07-31T13:57:20.653Z,32.85
2022-07-31T13:59:48.560Z,32.80
2022-07-31T14:02:16.843Z,32.80
2022-07-31T14:04:45.079Z,32.87
2022-07-31T14:07:13.190Z,32.93
2022-07-31T14:09:51.353Z,33.14
2022-07-31T14:12:24.188Z,33.17
2022-07-31T14:14:52.518Z,33.13
2022-07-31T14:17:21.252Z,33.10
2022-07-31T14:19:49.312Z,31.73
2022-07-31T14:22:17.319Z,32.53
2022-07-31T14:24:50.719Z,33.22
2022-07-31T14:27:19.647Z,33.06
2022-07-31T14:29:47.858Z,33.62
2022-07-31T14:32:15.826Z,33.75
2022-07-31T14:34:43.746Z,33.64
2022-07-31T14:37:12.694Z,34.03
2022-07-31T14:39:42.932Z,34.05
2022-07-31T14:42:12.743Z,34.01
2022-07-31T14:44:42.139Z,33.99
2022-07-31T14:47:10.944Z,33.97
2022-07-31T14:50:08.996Z,34.02
2022-07-31T14:52:28.315Z,33.80
2022-07-31T14:54:56.249Z,33.78
2022-07-31T14:59:58.844Z,32.92
2022-07-31T15:02:26.709Z,33.24
2022-07-31T15:04:54.734Z,33.57
2022-07-31T15:07:43.982Z,32.22
2022-07-31T15:10:11.580Z,32.86
2022-07-31T15:12:39.663Z,32.62
2022-07-31T15:15:10.602Z,32.47
2022-07-31T15:17:38.742Z,32.78
2022-07-31T15:20:07.666Z,33.74
2022-07-31T15:22:35.813Z,33.65
2022-07-31T15:25:04.263Z,32.76
2022-07-31T15:27:34.410Z,33.52
2022-07-31T15:30:06.921Z,33.46
2022-07-31T15:32:37.661Z,33.17
2022-07-31T15:35:06.248Z,33.28
2022-07-31T15:37:35.471Z,33.18
2022-07-31T15:40:04.769Z,33.14
2022-07-31T15:42:32.914Z,33.07
2022-07-31T15:45:00.896Z,33.08
2022-07-31T15:47:28.737Z,33.00
2022-07-31T15:49:58.019Z,32.87
2022-07-31T15:52:26.153Z,32.63
2022-07-31T15:54:54.156Z,32.59
2022-07-31T15:57:22.118Z,32.50
2022-07-31T15:59:50.173Z,32.38
2022-07-31T16:02:18.389Z,32.47
2022-07-31T16:04:53.097Z,32.55
2022-07-31T16:08:34.229Z,32.65
2022-07-31T16:10:18.034Z,32.75
2022-07-31T16:12:46.353Z,32.72
2022-07-31T16:15:14.320Z,32.68
2022-07-31T16:17:42.238Z,32.65
2022-07-31T16:20:11.436Z,32.61
2022-07-31T16:22:41.525Z,32.53
2022-07-31T16:25:10.005Z,32.44
2022-07-31T16:27:39.081Z,32.38
2022-07-31T16:30:08.820Z,32.33
2022-07-31T16:32:36.650Z,32.29
2022-07-31T16:35:06.251Z,32.22
2022-07-31T16:37:51.138Z,32.17
2022-07-31T16:40:28.983Z,32.11
2022-07-31T16:43:01.899Z,32.07
2022-07-31T16:45:36.534Z,32.07
2022-07-31T16:48:07.954Z,32.04
2022-07-31T16:50:35.840Z,32.04
2022-07-31T16:53:03.744Z,31.93
2022-07-31T16:56:00.270Z,31.98
2022-07-31T16:58:24.672Z,31.89
2022-07-31T17:00:52.822Z,31.85
2022-07-31T17:04:00.194Z,31.81
2022-07-31T17:06:11.265Z,31.67
2022-07-31T17:08:39.134Z,31.67
2022-07-31T17:11:08.734Z,31.62
2022-07-31T17:13:36.600Z,31.56
2022-07-31T17:16:04.879Z,31.50
2022-07-31T17:18:32.762Z,31.44
2022-07-31T17:21:00.827Z,31.38
2022-07-31T17:23:43.976Z,31.33
2022-07-31T17:26:21.400Z,31.25
2022-07-31T17:28:50.717Z,31.16
2022-07-31T17:31:20.707Z,31.13
2022-07-31T17:34:00.639Z,31.09
2022-07-31T17:36:30.055Z,30.99
2022-07-31T17:41:40.725Z,30.97
2022-07-31T17:44:08.924Z,30.67
2022-07-31T17:46:48.063Z,30.92
2022-07-31T17:49:20.611Z,30.90
2022-07-31T17:51:58.794Z,30.82
2022-07-31T17:54:27.618Z,29.96
2022-07-31T17:56:57.234Z,28.73
2022-07-31T17:59:26.024Z,29.93
2022-07-31T18:01:59.763Z,29.69
2022-07-31T18:04:27.965Z,29.22
2022-07-31T18:06:55.806Z,29.98
2022-07-31T18:09:24.213Z,29.80
2022-07-31T18:11:52.126Z,30.03
2022-07-31T18:14:24.481Z,29.32
2022-07-31T18:16:52.964Z,28.46
2022-07-31T18:19:21.866Z,30.34
2022-07-31T18:21:53.299Z,29.68
2022-07-31T18:24:21.632Z,28.41
2022-07-31T18:27:02.488Z,29.41
2022-07-31T18:29:32.057Z,29.80
2022-07-31T18:32:00.319Z,29.72
2022-07-31T18:34:28.833Z,29.62
2022-07-31T18:36:56.995Z,28.03
2022-07-31T18:39:25.097Z,27.66
2022-07-31T18:41:53.866Z,28.79
2022-07-31T18:44:22.853Z,29.22
2022-07-31T18:46:53.671Z,29.15
2022-07-31T18:51:01.666Z,27.13
2022-07-31T18:52:10.383Z,28.08
2022-07-31T18:54:39.065Z,28.36
2022-07-31T18:57:07.970Z,27.59
2022-07-31T18:59:35.937Z,28.23
2022-07-31T19:02:05.667Z,26.92
2022-07-31T19:04:34.163Z,28.11
2022-07-31T19:07:02.198Z,27.26
2022-07-31T19:09:30.476Z,27.44
2022-07-31T19:11:59.033Z,28.56
2022-07-31T19:14:27.080Z,27.27
2022-07-31T19:16:57.853Z,26.47
2022-07-31T19:19:54.217Z,26.60
2022-07-31T19:22:15.147Z,27.69
2022-07-31T19:24:45.118Z,26.85
2022-07-31T19:27:13.076Z,26.66
2022-07-31T19:29:41.064Z,27.28
2022-07-31T19:32:09.033Z,27.30
2022-07-31T19:34:38.435Z,27.35
2022-07-31T19:37:10.019Z,27.23
2022-07-31T19:39:37.903Z,27.05
2022-07-31T19:42:11.803Z,26.69
2022-07-31T19:44:40.241Z,27.27
2022-07-31T19:47:08.249Z,25.43
2022-07-31T19:49:38.382Z,26.25
2022-07-31T19:52:08.428Z,26.87
2022-07-31T19:54:36.472Z,26.51
2022-07-31T19:57:04.370Z,26.62
2022-07-31T19:59:32.269Z,25.50
2022-07-31T20:02:00.135Z,26.44
2022-07-31T20:04:27.997Z,27.02
2022-07-31T20:06:57.466Z,25.82
2022-07-31T20:09:26.752Z,25.17
2022-07-31T20:11:54.650Z,26.96
2022-07-31T20:14:22.553Z,26.10
2022-07-31T20:16:50.455Z,25.75
2022-07-31T20:19:18.313Z,26.00
2022-07-31T20:21:46.215Z,25.29
2022-07-31T20:24:17.749Z,25.89
2022-07-31T20:26:47.122Z,24.98
2022-07-31T20:29:15.088Z,25.17
2022-07-31T20:31:43.196Z,26.80
2022-07-31T20:34:11.024Z,25.65
2022-07-31T20:36:39.566Z,26.31
2022-07-31T20:39:07.590Z,25.89
2022-07-31T20:41:36.231Z,25.05
2022-07-31T20:44:05.975Z,26.43
2022-07-31T20:46:34.168Z,26.83
2022-07-31T20:49:02.059Z,25.92
2022-07-31T20:51:29.940Z,24.98
2022-07-31T20:53:58.243Z,26.48
2022-07-31T20:56:26.277Z,25.37
2022-07-31T20:58:54.119Z,26.65
2022-07-31T21:01:23.613Z,25.05
2022-07-31T21:03:51.597Z,25.54
2022-07-31T21:06:21.123Z,25.60
2022-07-31T21:08:49.022Z,26.29
2022-07-31T21:11:17.361Z,24.31
2022-07-31T21:13:45.567Z,24.22
2022-07-31T21:16:13.778Z,26.57
2022-07-31T21:18:43.753Z,26.54
2022-07-31T21:21:11.893Z,25.88
2022-07-31T21:23:39.834Z,26.45
2022-07-31T21:26:08.790Z,25.38
2022-07-31T21:28:37.004Z,25.80
2022-07-31T21:31:05.476Z,26.45
2022-07-31T21:33:34.022Z,25.38
2022-07-31T21:36:05.909Z,25.90
2022-07-31T21:38:35.347Z,25.78
2022-07-31T21:41:03.794Z,25.89
2022-07-31T21:43:33.530Z,25.83
2022-07-31T21:46:21.085Z,26.35
2022-07-31T21:48:51.468Z,24.53
2022-07-31T21:51:21.500Z,26.16
2022-07-31T21:53:49.464Z,24.37
2022-07-31T21:56:17.526Z,26.39
2022-07-31T21:58:45.792Z,25.04
2022-07-31T22:01:15.375Z,24.54
2022-07-31T22:03:43.823Z,26.34
2022-07-31T22:06:29.537Z,25.21
2022-07-31T22:08:59.501Z,26.30
2022-07-31T22:11:27.747Z,26.02
2022-07-31T22:13:56.845Z,25.09
2022-07-31T22:16:25.088Z,24.19
2022-07-31T22:18:53.830Z,25.52
2022-07-31T22:21:22.282Z,26.26
2022-07-31T22:23:50.876Z,24.08
2022-07-31T22:26:21.181Z,24.94
2022-07-31T22:28:52.473Z,24.83
2022-07-31T22:31:21.757Z,24.41
2022-07-31T22:33:51.958Z,24.07
2022-07-31T22:36:19.883Z,26.15
2022-07-31T22:38:48.184Z,25.79
2022-07-31T22:41:16.390Z,24.85
2022-07-31T22:44:12.756Z,25.23
2022-07-31T22:46:33.905Z,25.68
2022-07-31T22:49:02.020Z,24.44
2022-07-31T22:51:30.129Z,25.71
2022-07-31T22:53:58.247Z,26.02
2022-07-31T22:56:26.192Z,24.81
2022-07-31T22:58:55.527Z,24.51
2022-07-31T23:01:23.433Z,25.67
2022-07-31T23:03:53.651Z,25.52
2022-07-31T23:06:31.819Z,25.53
2022-07-31T23:09:01.082Z,25.61
2022-07-31T23:11:29.011Z,25.37
2022-07-31T23:13:58.250Z,25.47
2022-07-31T23:16:26.127Z,25.95
2022-07-31T23:18:54.008Z,25.59
2022-07-31T23:21:21.869Z,23.72
2022-07-31T23:23:49.865Z,25.90
2022-07-31T23:26:18.954Z,23.96
2022-07-31T23:28:47.079Z,24.96
2022-07-31T23:31:16.313Z,23.78
2022-07-31T23:33:44.276Z,25.30
2022-07-31T23:36:12.194Z,25.70
2022-07-31T23:38:40.123Z,24.90
2022-07-31T23:41:08.006Z,24.19
2022-07-31T23:43:34.981Z,25.32
2022-07-31T23:46:02.917Z,25.55
2022-07-31T23:48:32.825Z,25.52
2022-07-31T23:51:00.753Z,24.16
2022-07-31T23:53:28.741Z,23.49
2022-07-31T23:58:24.498Z,25.36
